This is the latest recevied weather packets stored in our database for station/object KM4KBD. If no packets are shown the sender has not sent any weather packets the latest 10 day(s).
| Time | Temp. | Humidity | Pressure | Rain* | Wind** | Luminosity | Snow |
|---|---|---|---|---|---|---|---|
| 1777840744 | 17.22° C | 38% | 1023 hPa | 0 mm | - | 474 W/m² | - |
| 1777840138 | 16.67° C | 37% | 1023.2 hPa | 0 mm | - | 501 W/m² | - |
| 1777839836 | 16.67° C | 35% | 1023.3 hPa | 0 mm | - | 513 W/m² | - |
| 1777839535 | 16.67° C | 34% | 1023.4 hPa | 0 mm | - | 524 W/m² | - |
| 1777836804 | 16.11° C | 35% | 1024 hPa | 0 mm | - | 624 W/m² | - |
| 1777836196 | 16.67° C | 37% | 1024.1 hPa | 0 mm | - | 644 W/m² | - |
| 1777833166 | 15° C | 39% | 1024.8 hPa | 0 mm | - | 723 W/m² | - |
| 1777831652 | 15.56° C | 38% | 1025.3 hPa | 0 mm | - | 746 W/m² | - |
| 1777830745 | 15° C | 39% | 1025.5 hPa | 0 mm | - | 755 W/m² | - |
| 1777828924 | 15° C | 35% | 1026.1 hPa | 0 mm | - | 761 W/m² | - |
| 1777828014 | 14.44° C | 38% | 1026.1 hPa | 0 mm | - | 756 W/m² | - |
| 1777827408 | 14.44° C | 40% | 1026.4 hPa | 0 mm | - | 754 W/m² | - |
| 1777827104 | 14.44° C | 41% | 1026.4 hPa | 0 mm | - | 750 W/m² | - |
| 1777826801 | 14.44° C | 36% | 1026.5 hPa | 0 mm | - | 745 W/m² | - |
| 1777826195 | 13.89° C | 38% | 1026.6 hPa | 0 mm | - | 741 W/m² | - |
| 1777825892 | 13.89° C | 35% | 1026.4 hPa | 0 mm | - | 734 W/m² | - |
| 1777825589 | 13.89° C | 38% | 1026.6 hPa | 0 mm | - | 729 W/m² | - |
| 1777825287 | 13.33° C | 39% | 1026.9 hPa | 0 mm | - | 726 W/m² | - |
| 1777824984 | 13.89° C | 38% | 1026.8 hPa | 0 mm | - | 721 W/m² | - |
| 1777824073 | 13.33° C | 35% | 1026.9 hPa | 0 mm | - | 705 W/m² | - |
| 1777822559 | 12.78° C | 39% | 1027.3 hPa | 0 mm | - | 666 W/m² | - |
| 1777821652 | 13.33° C | 41% | 1027.2 hPa | 0 mm | - | 639 W/m² | - |
| 1777821349 | 12.78° C | 39% | 1027.1 hPa | 0 mm | - | 629 W/m² | - |
| 1777821046 | 12.78° C | 44% | 1027.2 hPa | 0 mm | - | 620 W/m² | - |
| 1777818621 | 12.22° C | 43% | 1027.3 hPa | 0 mm | - | 530 W/m² | - |
* Rain latest hour (hover to see other rain measurements)
** Current wind speed in m/s (hover to see current wind gust speed)